Time;durP1;ratioP1;P1;durP2;ratioP2;P2;SDS_P1;SDS_P2;PMS_P1;PMS_P2;Temp;Humidity;BMP_temperature;BMP_pressure;BME280_temperature;BME280_humidity;BME280_pressure;Samples;Min_cycle;Max_cycle;Signal;HPM_P1;HPM_P2
2022/01/13 00:02:28;;;;;;;15.53;9.43;;;;;;;-3.55;90.16;97618.59;6115814;23;20191;-77
2022/01/13 00:04:53;;;;;;;12.73;9.43;;;;;;;-3.55;89.88;97618.59;6140863;23;20151;-78
2022/01/13 00:07:19;;;;;;;12.70;9.00;;;;;;;-3.59;90.13;97620.31;6140968;23;20182;-78
2022/01/13 00:09:44;;;;;;;14.33;9.47;;;;;;;-3.58;90.08;97616.94;6137116;23;20482;-79
2022/01/13 00:12:11;;;;;;;13.87;9.70;;;;;;;-3.64;90.40;97613.59;6106975;23;20156;-78
2022/01/13 00:17:11;;;;;;;12.87;9.07;;;;;;;-3.66;90.57;97623.75;6132406;23;20180;-78
2022/01/13 00:22:20;;;;;;;14.13;9.37;;;;;;;-3.72;90.89;97639.88;6131812;23;20567;-78
2022/01/13 00:24:50;;;;;;;16.07;9.67;;;;;;;-3.76;90.63;97637.38;6147480;23;20149;-76
2022/01/13 00:27:16;;;;;;;13.17;9.60;;;;;;;-3.74;90.85;97639.03;6153319;23;20164;-76
2022/01/13 00:29:44;;;;;;;12.77;9.50;;;;;;;-3.73;90.91;97643.25;6144129;23;20179;-79
2022/01/13 00:32:12;;;;;;;14.40;9.87;;;;;;;-3.74;91.10;97643.28;6111210;23;20160;-79
2022/01/13 00:34:38;;;;;;;14.43;9.97;;;;;;;-3.79;90.74;97637.41;6136137;23;20192;-78
2022/01/13 00:37:03;;;;;;;14.57;9.30;;;;;;;-3.79;90.72;97639.94;6135877;23;20180;-78
2022/01/13 00:39:28;;;;;;;11.70;8.80;;;;;;;-3.84;90.79;97639.94;6111328;23;20164;-79
2022/01/13 00:41:54;;;;;;;12.30;9.33;;;;;;;-3.88;90.48;97637.47;6111025;23;20243;-80
2022/01/13 00:44:21;;;;;;;16.53;9.90;;;;;;;-3.90;91.67;97649.28;6135817;23;20163;-78
2022/01/13 00:46:56;;;;;;;15.77;10.27;;;;;;;-3.86;92.01;97651.81;6137370;23;20152;-80
2022/01/13 00:49:22;;;;;;;14.40;9.80;;;;;;;-3.83;92.01;97649.25;6132159;23;20151;-79
2022/01/13 00:51:48;;;;;;;19.03;10.03;;;;;;;-3.79;91.98;97657.72;6130249;23;20163;-77
2022/01/13 00:54:13;;;;;;;15.93;10.00;;;;;;;-3.74;92.03;97651.72;6131426;23;20152;-77
2022/01/13 00:56:39;;;;;;;14.17;10.23;;;;;;;-3.69;92.23;97666.13;6106377;23;20179;-77
2022/01/13 00:59:07;;;;;;;14.90;10.30;;;;;;;-3.65;92.06;97662.69;6132325;23;20211;-77
2022/01/13 01:01:37;;;;;;;16.10;10.37;;;;;;;-3.59;92.51;97666.03;6132112;23;20156;-77
2022/01/13 01:04:04;;;;;;;13.90;9.20;;;;;;;-3.55;92.24;97661.78;6132755;23;20224;-79
2022/01/13 01:06:30;;;;;;;12.47;9.40;;;;;;;-3.49;93.23;97656.66;6132804;23;20152;-77
2022/01/13 01:08:55;;;;;;;13.93;9.47;;;;;;;-3.43;93.17;97660.00;6108345;23;20171;-78
2022/01/13 01:11:20;;;;;;;17.60;10.63;;;;;;;-3.35;93.04;97654.88;6107163;23;20231;-78
2022/01/13 01:13:49;;;;;;;14.80;9.97;;;;;;;-3.26;94.04;97661.56;6131999;23;20171;-79
2022/01/13 01:16:17;;;;;;;14.07;9.37;;;;;;;-3.19;93.70;97665.72;6132071;23;20159;-78
2022/01/13 01:28:52;;;;;;;16.30;10.50;;;;;;;-2.86;93.87;97684.94;6131425;23;20172;-77
2022/01/13 01:31:25;;;;;;;13.43;9.67;;;;;;;-2.83;94.26;97684.06;6132862;23;20148;-79
2022/01/13 01:34:02;;;;;;;14.70;10.03;;;;;;;-2.79;94.00;97685.72;6109889;23;20180;-79
2022/01/13 01:36:27;;;;;;;17.67;11.10;;;;;;;-2.75;94.49;97687.38;6138118;23;20540;-78
2022/01/13 01:38:55;;;;;;;14.77;9.63;;;;;;;-2.71;94.23;97687.34;6134591;23;20177;-79
2022/01/13 01:41:20;;;;;;;15.60;10.20;;;;;;;-2.71;94.56;97673.78;6108721;23;20239;-78
2022/01/13 01:43:46;;;;;;;13.50;9.47;;;;;;;-2.70;94.46;97668.69;6132914;23;20184;-77
2022/01/13 01:46:12;;;;;;;16.70;10.17;;;;;;;-2.65;94.56;97664.41;6109030;23;20183;-77
2022/01/13 01:48:37;;;;;;;14.63;9.93;;;;;;;-2.62;94.42;97671.16;6108516;23;20255;-78
2022/01/13 01:51:04;;;;;;;12.90;9.10;;;;;;;-2.59;94.67;97671.94;6134983;23;20152;-78
2022/01/13 01:53:30;;;;;;;10.40;7.77;;;;;;;-2.55;94.53;97675.31;6109404;23;20605;-79
2022/01/13 01:55:56;;;;;;;12.57;7.47;;;;;;;-2.52;94.83;97675.28;6108768;23;20255;-77
2022/01/13 01:58:22;;;;;;;14.27;8.03;;;;;;;-2.46;95.29;97680.31;6132374;23;20179;-77
2022/01/13 02:00:47;;;;;;;13.30;8.70;;;;;;;-2.42;94.92;97673.47;6108252;23;20225;-77
2022/01/13 02:03:15;;;;;;;13.20;8.30;;;;;;;-2.37;94.88;97669.19;6131850;23;20188;-78
2022/01/13 02:05:40;;;;;;;13.30;8.57;;;;;;;-2.33;94.74;97670.81;6107188;23;20657;-78
2022/01/13 02:08:09;;;;;;;11.67;8.40;;;;;;;-2.33;94.67;97660.63;6107656;23;20173;-77
2022/01/13 02:10:34;;;;;;;12.67;9.20;;;;;;;-2.35;95.13;97658.13;6131750;23;20601;-78
2022/01/13 02:13:05;;;;;;;11.80;8.17;;;;;;;-2.36;94.60;97658.97;6131275;23;20206;-77
2022/01/13 02:15:34;;;;;;;15.90;9.23;;;;;;;-2.33;94.88;97660.63;6106633;23;20235;-79
2022/01/13 02:18:02;;;;;;;13.80;8.57;;;;;;;-2.35;95.03;97657.28;6131037;23;20274;-79
2022/01/13 02:20:48;;;;;;;15.87;8.33;;;;;;;-2.29;94.99;97652.13;6108422;23;20185;-79
2022/01/13 02:23:13;;;;;;;12.27;8.00;;;;;;;-2.29;94.50;97652.13;6107028;23;20191;-77
2022/01/13 02:25:39;;;;;;;13.03;7.57;;;;;;;-2.26;94.98;97654.63;6132212;23;20506;-78
2022/01/13 02:28:04;;;;;;;11.17;7.80;;;;;;;-2.25;94.61;97652.91;6134493;23;20178;-79
2022/01/13 02:30:30;;;;;;;10.57;7.47;;;;;;;-2.22;94.97;97647.78;6107876;23;20179;-78
2022/01/13 02:32:56;;;;;;;11.53;7.70;;;;;;;-2.28;94.51;97646.16;6134529;23;20604;-79
2022/01/13 02:35:21;;;;;;;14.17;8.27;;;;;;;-2.28;95.04;97641.09;6133065;23;20494;-78
2022/01/13 02:37:46;;;;;;;11.07;7.60;;;;;;;-2.33;94.98;97637.75;6132360;23;20176;-79
2022/01/13 02:40:12;;;;;;;14.40;8.43;;;;;;;-2.34;94.87;97633.50;6108170;23;20161;-79
2022/01/13 02:42:37;;;;;;;12.20;8.00;;;;;;;-2.34;95.29;97630.97;6133089;23;20185;-79
2022/01/13 02:45:05;;;;;;;13.03;8.63;;;;;;;-2.30;95.36;97630.94;6132768;23;20157;-78
2022/01/13 02:50:08;;;;;;;12.07;7.70;;;;;;;-2.36;95.33;97628.44;6133281;23;20146;-78
2022/01/13 02:52:34;;;;;;;13.80;8.40;;;;;;;-2.37;95.55;97633.56;6107930;23;20619;-78
2022/01/13 02:54:59;;;;;;;11.57;7.70;;;;;;;-2.38;95.41;97631.88;6132918;23;20153;-79
2022/01/13 02:57:25;;;;;;;11.13;7.67;;;;;;;-2.40;95.49;97625.94;6108417;23;20200;-80
2022/01/13 02:59:50;;;;;;;13.37;8.27;;;;;;;-2.43;95.75;97634.47;6109388;23;20156;-77
2022/01/13 03:02:15;;;;;;;11.53;7.83;;;;;;;-2.41;95.71;97634.44;6133071;23;20189;-79
2022/01/13 03:04:48;;;;;;;11.87;7.00;;;;;;;-2.42;95.84;97627.66;6133657;23;20324;-77
2022/01/13 03:07:13;;;;;;;11.57;7.47;;;;;;;-2.38;95.98;97621.69;6108343;23;20175;-78
2022/01/13 03:09:39;;;;;;;8.27;6.37;;;;;;;-2.42;95.89;97633.59;6109036;23;20163;-78
2022/01/13 03:12:04;;;;;;;12.00;7.50;;;;;;;-2.39;95.82;97635.25;6132871;23;20161;-78
2022/01/13 03:14:29;;;;;;;10.00;7.40;;;;;;;-2.53;95.86;97630.34;6130775;23;20154;-79
2022/01/13 03:16:55;;;;;;;12.67;7.47;;;;;;;-2.62;96.42;97623.66;6108300;23;20664;-79
2022/01/13 03:19:22;;;;;;;12.43;7.47;;;;;;;-2.64;96.41;97625.38;6132979;23;20153;-78
2022/01/13 03:21:47;;;;;;;9.37;7.30;;;;;;;-2.66;96.40;97627.06;6132724;23;20192;-78
2022/01/13 03:24:13;;;;;;;10.47;6.67;;;;;;;-2.73;96.83;97628.03;6108126;23;20186;-78
2022/01/13 03:26:38;;;;;;;11.60;7.70;;;;;;;-2.78;96.60;97617.03;6133571;23;20152;-78
2022/01/13 03:29:15;;;;;;;10.30;7.00;;;;;;;-2.66;97.28;97616.91;6133936;23;20167;-79
2022/01/13 03:31:41;;;;;;;8.60;6.33;;;;;;;-2.71;97.12;97611.03;6151496;23;20130;-76
2022/01/13 03:34:06;;;;;;;10.07;6.80;;;;;;;-2.65;97.23;97597.41;6127617;23;20144;-76
2022/01/13 03:36:32;;;;;;;10.97;6.90;;;;;;;-2.58;97.68;97589.69;6139922;23;20157;-77
2022/01/13 03:38:58;;;;;;;10.90;6.40;;;;;;;-2.53;97.31;97581.16;6114612;23;20176;-79
2022/01/13 03:41:23;;;;;;;8.93;6.50;;;;;;;-2.59;97.18;97590.53;6113071;23;20737;-79
2022/01/13 03:43:51;;;;;;;8.10;5.90;;;;;;;-2.52;97.67;97593.88;6113527;23;20184;-78
2022/01/13 03:46:17;;;;;;;8.73;6.00;;;;;;;-2.53;97.59;97588.81;6137938;23;20484;-78
2022/01/13 03:48:43;;;;;;;8.60;6.03;;;;;;;-2.52;97.59;97587.94;6112815;23;20218;-79
2022/01/13 03:51:09;;;;;;;10.57;6.13;;;;;;;-2.50;98.02;97581.97;6136570;23;20156;-78
2022/01/13 03:53:53;;;;;;;7.40;5.67;;;;;;;-2.48;97.78;97589.56;6112615;23;20180;-78
2022/01/13 03:56:27;;;;;;;9.07;5.90;;;;;;;-2.58;98.12;97592.22;6138988;23;20242;-78
2022/01/13 03:59:21;;;;;;;7.73;6.10;;;;;;;-2.69;97.79;97586.44;6137506;23;20195;-77
2022/01/13 04:02:22;;;;;;;14.40;6.53;;;;;;;-2.69;98.49;97583.03;6135778;23;20215;-79
2022/01/13 04:04:48;;;;;;;9.73;6.03;;;;;;;-2.75;98.67;97594.13;6024266;23;20169;-78
2022/01/13 04:07:18;;;;;;;9.03;5.83;;;;;;;-2.70;98.83;97600.00;6000600;23;20501;-79
2022/01/13 04:09:44;;;;;;;8.93;5.53;;;;;;;-2.62;98.95;97599.94;6047558;23;20265;-78
2022/01/13 04:12:11;;;;;;;10.87;6.87;;;;;;;-2.66;98.53;97599.09;6047032;23;20157;-78
2022/01/13 04:14:46;;;;;;;8.57;5.40;;;;;;;-2.69;98.84;97606.78;6045950;23;20158;-77
2022/01/13 04:17:20;;;;;;;7.23;5.70;;;;;;;-2.76;98.96;97607.69;6026014;23;20248;-79
2022/01/13 04:19:46;;;;;;;10.27;5.97;;;;;;;-2.79;99.09;97596.72;6023547;23;20158;-78
2022/01/13 04:22:13;;;;;;;8.47;5.80;;;;;;;-2.86;99.69;97604.41;5998403;23;20533;-78
2022/01/13 04:24:43;;;;;;;8.83;5.83;;;;;;;-2.78;99.88;97606.03;6023554;23;20162;-78
2022/01/13 04:27:09;;;;;;;8.07;5.47;;;;;;;-2.82;99.59;97604.41;6046630;23;20181;-79
2022/01/13 04:29:38;;;;;;;8.13;5.50;;;;;;;-2.88;99.55;97610.38;6000324;23;20198;-80
2022/01/13 04:32:04;;;;;;;8.80;5.97;;;;;;;-2.94;99.61;97598.56;6000354;23;20206;-80
2022/01/13 04:34:31;;;;;;;8.93;5.73;;;;;;;-2.84;99.96;97596.75;6025301;23;20203;-80
2022/01/13 04:36:58;;;;;;;11.07;6.03;;;;;;;-2.82;100.00;97600.16;6048081;23;20245;-80
2022/01/13 04:39:24;;;;;;;8.80;6.20;;;;;;;-2.84;100.00;97599.31;6098219;23;20168;-80
2022/01/13 04:41:49;;;;;;;9.57;5.57;;;;;;;-2.79;99.63;97605.19;6135257;23;20207;-79
2022/01/13 04:44:18;;;;;;;8.37;5.17;;;;;;;-2.73;99.73;97597.50;6111540;23;20554;-80
2022/01/13 04:46:44;;;;;;;10.53;5.53;;;;;;;-2.80;99.98;97597.59;6109852;23;20163;-78
2022/01/13 04:49:09;;;;;;;8.80;5.70;;;;;;;-2.83;100.00;97603.53;6136903;23;20163;-79
2022/01/13 04:51:36;;;;;;;9.17;5.43;;;;;;;-2.68;100.00;97593.19;6110723;23;20188;-79
2022/01/13 04:54:01;;;;;;;9.63;6.03;;;;;;;-2.79;99.71;97607.75;6136490;23;20149;-79
2022/01/13 04:56:41;;;;;;;7.50;5.40;;;;;;;-2.83;99.76;97603.53;6111358;23;20202;-79
2022/01/13 04:59:07;;;;;;;8.80;5.57;;;;;;;-2.85;100.00;97605.25;6113592;23;20651;-79
2022/01/13 05:01:32;;;;;;;9.33;5.67;;;;;;;-2.86;100.00;97604.41;6110226;23;20159;-79
2022/01/13 05:03:58;;;;;;;9.10;5.57;;;;;;;-2.91;100.00;97616.34;6110954;23;20227;-80
2022/01/13 05:06:23;;;;;;;8.57;5.73;;;;;;;-2.93;100.00;97617.19;6110109;23;20152;-79
2022/01/13 05:08:49;;;;;;;7.20;4.90;;;;;;;-2.80;100.00;97612.84;6110272;23;20187;-79
2022/01/13 05:11:15;;;;;;;7.97;4.63;;;;;;;-2.69;100.00;97619.50;6135629;23;20487;-80
2022/01/13 05:13:41;;;;;;;6.43;4.47;;;;;;;-2.60;100.00;97621.94;6134519;23;20149;-80
2022/01/13 05:16:09;;;;;;;8.23;4.90;;;;;;;-2.54;100.00;97626.13;6135538;23;20164;-79
2022/01/13 05:21:37;;;;;;;6.47;4.37;;;;;;;-2.41;100.00;97627.66;6135421;23;20494;-79
2022/01/13 05:24:02;;;;;;;6.80;4.80;;;;;;;-2.46;100.00;97638.75;6136057;23;20177;-80
2022/01/13 05:26:27;;;;;;;9.17;5.47;;;;;;;-2.44;100.00;97634.47;6111494;23;20219;-80
2022/01/13 05:28:53;;;;;;;6.67;5.00;;;;;;;-2.46;100.00;97623.50;6137005;23;20180;-78
2022/01/13 05:31:18;;;;;;;7.40;5.43;;;;;;;-2.46;100.00;97623.50;6134259;23;20190;-79
2022/01/13 05:33:43;;;;;;;9.13;5.03;;;;;;;-2.41;100.00;97629.34;6110103;23;20158;-78
2022/01/13 05:36:09;;;;;;;9.33;5.73;;;;;;;-2.42;100.00;97630.22;6109493;23;20155;-80
2022/01/13 05:38:34;;;;;;;7.07;5.10;;;;;;;-2.33;100.00;97627.56;6134118;23;20204;-78
2022/01/13 05:40:59;;;;;;;7.97;5.43;;;;;;;-2.36;100.00;97635.25;6103851;23;20160;-78
2022/01/13 05:43:25;;;;;;;8.50;5.33;;;;;;;-2.31;100.00;97629.22;6106224;23;20189;-82
2022/01/13 05:45:50;;;;;;;10.70;5.93;;;;;;;-2.32;100.00;97621.59;6133228;23;20153;-80
2022/01/13 05:48:16;;;;;;;8.30;5.87;;;;;;;-2.32;100.00;97621.59;6132647;23;20172;-81
2022/01/13 05:50:41;;;;;;;8.10;5.40;;;;;;;-2.29;100.00;97621.59;6108522;23;20198;-81
2022/01/13 05:53:07;;;;;;;10.00;5.90;;;;;;;-2.25;100.00;97625.75;6131073;23;20489;-81
2022/01/13 05:55:33;;;;;;;8.43;5.90;;;;;;;-2.31;100.00;97630.91;6135581;23;20164;-81
2022/01/13 05:57:58;;;;;;;9.53;6.50;;;;;;;-2.30;100.00;97636.00;6106729;23;20239;-80
2022/01/13 06:00:24;;;;;;;7.53;5.47;;;;;;;-2.32;100.00;97630.06;6131424;23;20152;-79
2022/01/13 06:02:50;;;;;;;9.17;6.33;;;;;;;-2.35;100.00;97634.38;6132617;23;20245;-80
2022/01/13 06:05:16;;;;;;;10.90;6.33;;;;;;;-2.35;100.00;97634.38;6108969;23;20176;-80
2022/01/13 06:07:42;;;;;;;10.77;6.43;;;;;;;-2.36;100.00;97636.09;6133031;23;20183;-80
2022/01/13 06:10:10;;;;;;;9.57;6.93;;;;;;;-2.35;100.00;97626.75;6105620;23;20188;-78
2022/01/13 06:12:39;;;;;;;8.53;6.40;;;;;;;-2.31;100.00;97630.91;6102399;23;20154;-79
2022/01/13 06:15:09;;;;;;;9.83;6.90;;;;;;;-2.29;100.00;97636.84;6130345;23;20654;-80
2022/01/13 06:17:36;;;;;;;9.83;6.30;;;;;;;-2.35;100.00;97626.75;6101044;23;20256;-80
2022/01/13 06:20:03;;;;;;;9.20;6.47;;;;;;;-2.34;100.00;97629.25;6126221;23;20141;-80
2022/01/13 06:22:29;;;;;;;10.77;6.73;;;;;;;-2.35;100.00;97625.03;6127740;23;20195;-80
2022/01/13 06:24:54;;;;;;;12.50;7.40;;;;;;;-2.36;100.00;97619.97;6126013;23;20162;-79
2022/01/13 06:27:21;;;;;;;9.13;6.27;;;;;;;-2.26;100.00;97621.53;6100496;23;20258;-81
2022/01/13 06:29:47;;;;;;;10.07;6.67;;;;;;;-2.30;100.00;97619.88;6101412;23;20161;-80
2022/01/13 06:32:12;;;;;;;9.60;6.53;;;;;;;-2.29;100.00;97621.59;6124871;23;20211;-80
2022/01/13 06:34:37;;;;;;;13.97;6.73;;;;;;;-2.30;100.00;97627.50;6101664;23;20167;-80
2022/01/13 06:37:03;;;;;;;8.93;6.07;;;;;;;-2.33;100.00;97622.47;6102319;23;20514;-80
2022/01/13 06:39:28;;;;;;;8.43;6.40;;;;;;;-2.32;100.00;97622.44;6140672;23;20138;-78
2022/01/13 06:41:53;;;;;;;10.47;6.47;;;;;;;-2.37;100.00;97623.38;6151430;23;20160;-77
2022/01/13 06:44:19;;;;;;;10.33;6.27;;;;;;;-2.22;100.00;97627.41;6145927;23;20597;-79
2022/01/13 06:46:44;;;;;;;9.93;6.67;;;;;;;-2.21;100.00;97635.03;6112634;23;20176;-80
2022/01/13 06:49:09;;;;;;;11.27;7.03;;;;;;;-2.17;100.00;97636.69;6138289;23;20247;-79
2022/01/13 06:51:35;;;;;;;11.27;6.57;;;;;;;-2.10;100.00;97630.66;6133209;23;20171;-79
2022/01/13 06:54:00;;;;;;;10.87;6.67;;;;;;;-2.11;100.00;97644.25;6136270;23;20158;-79
2022/01/13 06:56:26;;;;;;;9.83;7.03;;;;;;;-2.16;100.00;97640.91;6110732;23;20241;-80
2022/01/13 06:58:52;;;;;;;11.27;7.13;;;;;;;-2.16;100.00;97646.00;6131125;23;20178;-78
2022/01/13 07:01:18;;;;;;;11.07;6.90;;;;;;;-2.13;100.00;97651.06;6129036;23;20687;-80
2022/01/13 07:03:43;;;;;;;9.23;7.17;;;;;;;-2.15;100.00;97659.56;6106417;23;20194;-81
2022/01/13 07:06:09;;;;;;;10.13;6.90;;;;;;;-2.15;100.00;97662.97;6132255;23;20161;-79
2022/01/13 07:08:34;;;;;;;11.60;7.00;;;;;;;-2.14;100.00;97659.56;6131758;23;20183;-78
2022/01/13 07:11:03;;;;;;;11.03;7.03;;;;;;;-2.05;100.00;97672.16;6109525;23;20509;-78
2022/01/13 07:13:28;;;;;;;9.10;6.37;;;;;;;-2.04;100.00;97676.38;6134162;23;20605;-80
2022/01/13 07:15:54;;;;;;;10.17;6.57;;;;;;;-1.97;100.00;97678.88;6112036;23;20158;-80
2022/01/13 07:18:19;;;;;;;11.27;7.83;;;;;;;-2.04;100.00;97685.75;6135795;23;20234;-78
2022/01/13 07:20:45;;;;;;;7.43;5.73;;;;;;;-1.97;100.00;97683.97;6111088;23;20152;-77
2022/01/13 07:23:11;;;;;;;11.20;7.27;;;;;;;-2.03;100.00;97680.66;6135078;23;20200;-79
2022/01/13 07:25:36;;;;;;;12.50;8.13;;;;;;;-2.04;100.00;97689.13;6135530;23;20602;-80
2022/01/13 07:28:02;;;;;;;12.10;7.77;;;;;;;-1.91;100.00;97681.34;6135148;23;20209;-78
2022/01/13 07:30:27;;;;;;;10.83;7.47;;;;;;;-2.02;100.00;97679.78;6131535;23;20164;-78
2022/01/13 07:32:53;;;;;;;11.73;7.93;;;;;;;-2.08;100.00;97684.94;6109049;23;20161;-78
2022/01/13 07:35:18;;;;;;;11.80;7.97;;;;;;;-2.09;100.00;97688.34;6132815;23;20153;-79
2022/01/13 07:37:43;;;;;;;10.00;7.57;;;;;;;-2.20;100.00;97674.09;6136392;23;20592;-80
2022/01/13 07:40:13;;;;;;;9.63;6.73;;;;;;;-2.24;100.00;97691.06;6132686;23;20161;-80
2022/01/13 07:42:42;;;;;;;14.80;7.70;;;;;;;-2.22;100.00;97693.59;6134721;23;20956;-80
2022/01/13 07:45:09;;;;;;;11.50;7.00;;;;;;;-2.34;100.00;97694.59;6110543;23;20171;-79
2022/01/13 07:47:34;;;;;;;10.43;7.30;;;;;;;-2.36;100.00;97693.78;6134824;23;20184;-79
2022/01/13 07:50:05;;;;;;;10.63;6.90;;;;;;;-2.28;100.00;97682.63;6134508;23;20157;-81
2022/01/13 07:52:30;;;;;;;12.83;7.73;;;;;;;-2.30;100.00;97691.13;6132341;23;20236;-81
2022/01/13 07:54:55;;;;;;;11.87;7.40;;;;;;;-2.28;100.00;97684.34;6132942;23;20160;-80
2022/01/13 07:57:21;;;;;;;10.67;7.43;;;;;;;-2.23;100.00;97682.56;6133314;23;20170;-82
2022/01/13 07:59:46;;;;;;;11.67;7.97;;;;;;;-2.25;100.00;97681.75;6107691;23;20212;-82
2022/01/13 08:02:11;;;;;;;12.63;7.47;;;;;;;-2.21;100.00;97685.94;6110045;23;20247;-81
2022/01/13 08:04:37;;;;;;;11.70;8.20;;;;;;;-2.30;100.00;97686.03;6129525;23;20159;-82
2022/01/13 08:07:02;;;;;;;10.90;6.80;;;;;;;-2.23;100.00;97687.66;6105180;23;20184;-80
2022/01/13 08:09:27;;;;;;;11.00;7.37;;;;;;;-2.31;100.00;97689.44;6106345;23;20160;-82
2022/01/13 08:11:53;;;;;;;16.70;9.80;;;;;;;-2.26;100.00;97686.88;6130932;23;20161;-81
2022/01/13 08:14:19;;;;;;;25.93;15.60;;;;;;;-2.25;100.00;97693.63;6107240;23;20184;-82
2022/01/13 08:32:18;;;;;;;;;;;;;;;;;;;;;
2022/01/13 08:35:16;;;;;;;;;;;;;;;;;;;;;
2022/01/13 08:38:25;;;;;;;12.97;8.67;;;;;;;-2.16;100.00;97679.09;6107427;23;20220;-81
2022/01/13 08:40:56;;;;;;;13.27;8.40;;;;;;;-1.96;100.00;97689.03;6107388;23;20167;-81
2022/01/13 08:43:40;;;;;;;12.90;8.40;;;;;;;-1.95;100.00;97687.31;6055944;23;20189;-81
2022/01/13 08:46:40;;;;;;;13.40;8.43;;;;;;;-1.90;100.00;97699.16;6083698;23;20169;-81
2022/01/13 08:49:36;;;;;;;16.40;8.70;;;;;;;-1.84;100.00;97690.59;5965345;24;20167;-81
2022/01/13 08:52:45;;;;;;;13.13;9.03;;;;;;;-1.73;100.00;97693.84;5965334;24;20375;-82
2022/01/13 08:56:00;;;;;;;11.63;9.00;;;;;;;-1.71;100.00;97685.31;5959401;24;20191;-82
2022/01/13 09:01:55;;;;;;;13.03;8.63;;;;;;;-1.88;100.00;97692.31;5924300;24;20705;-79
2022/01/13 09:23:13;;;;;;;;;;;;;;;;;;;;;
2022/01/13 09:38:27;;;;;;;12.73;7.63;;;;;;;-1.11;98.72;97656.38;5933989;24;20201;-80
2022/01/13 09:54:59;;;;;;;12.30;7.67;;;;;;;-0.65;96.69;97653.88;5886797;24;20229;-81
2022/01/13 09:57:49;;;;;;;10.93;7.63;;;;;;;-0.51;96.76;97656.19;5863959;24;20184;-81
2022/01/13 10:01:13;;;;;;;11.83;8.20;;;;;;;-0.39;96.58;97658.47;5883798;24;20175;-81
2022/01/13 10:32:57;;;;;;;9.63;6.30;;;;;;;0.33;90.16;97663.81;6129498;23;20190;-82
2022/01/13 10:35:25;;;;;;;9.07;6.00;;;;;;;0.46;89.59;97657.59;6102746;23;20256;-82
2022/01/13 10:37:54;;;;;;;6.97;5.23;;;;;;;0.46;89.26;97671.19;6106037;23;20471;-82
2022/01/13 10:40:33;;;;;;;;;;;;;;;;;;;;;
2022/01/13 10:43:48;;;;;;;;;;;;;;;;;;;;;
2022/01/13 10:50:22;;;;;;;9.13;5.23;;;;;;;0.75;88.23;97665.41;6131855;23;20155;-82
2022/01/13 10:52:54;;;;;;;13.60;10.30;;;;;;;0.53;87.97;97672.75;6014346;23;20168;-81
2022/01/13 10:55:43;;;;;;;16.83;10.47;;;;;;;0.57;87.95;97673.50;5990847;23;20177;-82
2022/01/13 10:59:02;;;;;;;12.13;8.80;;;;;;;0.79;88.19;97672.13;5970468;23;20194;-83
2022/01/13 11:30:17;;;;;;;7.93;4.63;;;;;;;1.50;84.69;97675.47;5601751;25;20203;-81
2022/01/13 12:14:27;;;;;;;14.40;9.67;;;;;;;2.22;78.42;97672.63;6181898;23;20239;-80
2022/01/13 12:16:53;;;;;;;13.50;9.80;;;;;;;2.27;78.48;97660.50;6090670;23;20176;-81
2022/01/13 12:19:41;;;;;;;14.77;9.53;;;;;;;2.35;78.18;97665.41;6065625;23;20240;-80
2022/01/13 12:22:12;;;;;;;11.37;8.33;;;;;;;2.30;78.33;97663.84;6018124;23;20169;-81
2022/01/13 12:24:43;;;;;;;11.13;7.80;;;;;;;2.42;78.23;97664.34;6018942;23;20189;-80
2022/01/13 12:27:08;;;;;;;10.67;8.10;;;;;;;2.49;77.84;97644.47;6041360;23;20200;-80
2022/01/13 12:29:36;;;;;;;15.40;9.47;;;;;;;2.57;77.45;97651.94;6042315;23;20742;-79
2022/01/13 12:32:03;;;;;;;13.67;8.07;;;;;;;2.51;78.14;97646.09;6041653;23;20158;-78
2022/01/13 12:34:29;;;;;;;10.63;7.07;;;;;;;2.54;78.32;97633.16;6041483;23;20161;-79
2022/01/13 12:36:59;;;;;;;7.47;5.37;;;;;;;2.67;78.69;97641.34;6065414;23;20502;-79
2022/01/13 12:39:26;;;;;;;7.93;5.23;;;;;;;2.71;77.73;97640.34;6018001;23;20463;-79
2022/01/13 12:41:58;;;;;;;7.60;5.13;;;;;;;2.85;77.45;97637.34;6041185;23;20165;-81
2022/01/13 12:45:28;;;;;;;7.33;5.27;;;;;;;2.74;77.82;97626.56;6020341;23;20229;-79
2022/01/13 12:47:09;;;;;;;7.83;5.83;;;;;;;2.69;77.65;97621.59;6066059;23;20177;-78
2022/01/13 12:49:35;;;;;;;7.60;5.70;;;;;;;2.73;77.93;97619.75;6020323;23;20227;-79
2022/01/13 12:52:01;;;;;;;9.97;6.27;;;;;;;2.77;77.06;97619.63;6041819;23;20165;-80
2022/01/13 12:54:26;;;;;;;8.17;5.47;;;;;;;2.92;76.02;97620.88;6105887;23;20176;-80
2022/01/13 12:56:51;;;;;;;7.83;5.90;;;;;;;2.81;75.80;97616.06;6109225;23;20222;-79
2022/01/13 12:59:17;;;;;;;8.60;6.43;;;;;;;2.79;75.91;97622.97;6160027;23;20202;-77
2022/01/13 13:01:42;;;;;;;13.17;8.10;;;;;;;2.84;75.40;97628.81;6131961;23;20155;-79
2022/01/13 13:04:10;;;;;;;14.30;7.47;;;;;;;2.89;74.58;97638.06;6129936;23;20190;-80
2022/01/13 13:06:39;;;;;;;10.57;7.43;;;;;;;2.88;75.43;97631.28;6130801;23;20159;-78
2022/01/13 13:09:09;;;;;;;9.97;6.70;;;;;;;2.94;74.69;97626.78;6131301;23;20603;-78
2022/01/13 13:11:39;;;;;;;10.77;6.87;;;;;;;2.86;73.89;97631.31;6154518;23;20601;-78
2022/01/13 13:14:14;;;;;;;9.30;6.77;;;;;;;2.88;73.53;97632.09;6106947;23;20158;-78
2022/01/13 13:16:47;;;;;;;9.67;6.40;;;;;;;2.81;75.14;97626.31;6130569;23;20143;-79
2022/01/13 13:19:12;;;;;;;9.80;7.07;;;;;;;2.80;75.47;97629.78;6108348;23;20147;-80
2022/01/13 13:21:38;;;;;;;10.63;6.70;;;;;;;2.82;75.87;97627.16;6130510;23;20155;-79
2022/01/13 13:24:04;;;;;;;8.07;5.93;;;;;;;2.85;74.98;97619.38;6131426;23;20179;-79
2022/01/13 13:26:30;;;;;;;9.30;6.33;;;;;;;2.82;74.57;97619.47;6107925;23;20214;-79
2022/01/13 13:28:58;;;;;;;8.97;6.77;;;;;;;2.91;73.34;97615.75;6131857;23;20182;-80
2022/01/13 13:31:34;;;;;;;6.73;5.70;;;;;;;2.84;73.11;97618.56;6105106;23;20163;-78
2022/01/13 13:34:12;;;;;;;10.43;6.63;;;;;;;2.85;73.27;97619.38;6129743;23;20136;-80
2022/01/13 13:36:39;;;;;;;8.57;6.50;;;;;;;2.83;74.53;97619.44;6129963;23;20151;-79
2022/01/13 13:39:10;;;;;;;9.53;6.67;;;;;;;2.79;74.63;97619.56;6124737;23;20183;-79
2022/01/13 13:41:35;;;;;;;8.27;6.23;;;;;;;2.70;75.26;97612.19;6101237;23;20615;-80
2022/01/13 13:44:00;;;;;;;10.40;8.00;;;;;;;2.73;75.00;97607.78;6125073;23;20209;-80
2022/01/13 13:46:26;;;;;;;12.17;7.73;;;;;;;2.68;74.34;97613.97;6101494;23;20139;-80
2022/01/13 13:48:52;;;;;;;10.37;6.87;;;;;;;2.70;74.94;97612.19;6126390;23;20366;-79
2022/01/13 13:51:21;;;;;;;11.43;6.93;;;;;;;2.75;73.61;97607.75;6100681;23;20167;-81
2022/01/13 13:54:09;;;;;;;12.50;6.73;;;;;;;2.60;75.28;97601.38;6127841;23;20147;-80
2022/01/13 13:56:49;;;;;;;11.10;7.17;;;;;;;2.69;75.05;97600.25;6129563;23;20509;-78
2022/01/13 13:59:19;;;;;;;9.40;7.17;;;;;;;2.66;74.44;97595.22;6110333;23;20294;-78
2022/01/13 14:02:06;;;;;;;10.53;7.30;;;;;;;2.71;74.76;97593.31;6120082;23;20144;-81
2022/01/13 14:04:34;;;;;;;10.03;7.10;;;;;;;2.73;74.54;97586.41;6146531;23;20210;-80
2022/01/13 14:06:59;;;;;;;11.00;7.90;;;;;;;2.72;74.74;97582.16;6136069;23;20185;-78
2022/01/13 14:09:38;;;;;;;10.47;7.80;;;;;;;2.65;75.21;97573.00;6108245;23;20179;-80
2022/01/13 14:12:04;;;;;;;10.37;7.73;;;;;;;2.68;74.99;97578.88;6129224;23;20167;-79
2022/01/13 14:14:35;;;;;;;8.73;7.27;;;;;;;2.67;75.19;97586.63;6111812;23;20159;-79
2022/01/13 14:17:01;;;;;;;10.80;6.57;;;;;;;2.80;74.54;97575.91;6112166;23;20182;-77
2022/01/13 14:19:26;;;;;;;10.57;7.63;;;;;;;2.79;74.52;97574.22;6131182;23;20493;-80
2022/01/13 14:21:52;;;;;;;10.90;7.50;;;;;;;2.80;74.66;97575.06;6130002;23;20177;-79
2022/01/13 14:24:35;;;;;;;9.70;7.03;;;;;;;2.58;75.28;97580.06;6107157;23;20183;-79
2022/01/13 14:27:08;;;;;;;10.47;7.57;;;;;;;2.70;74.70;97573.69;6131557;23;20179;-79
2022/01/13 14:29:33;;;;;;;9.87;7.57;;;;;;;2.59;75.82;97574.06;6133452;23;20223;-81
2022/01/13 14:32:21;;;;;;;8.43;7.20;;;;;;;2.63;74.36;97565.34;6129847;23;20152;-79
2022/01/13 14:34:51;;;;;;;11.17;6.33;;;;;;;2.71;74.68;97565.09;6158270;23;20588;-80
2022/01/13 14:37:17;;;;;;;11.27;6.30;;;;;;;2.61;75.49;97569.69;6134168;23;20210;-81
2022/01/13 14:39:43;;;;;;;9.60;6.67;;;;;;;2.54;75.38;97576.75;6133528;23;20167;-81
2022/01/13 14:42:14;;;;;;;10.47;6.57;;;;;;;2.53;75.37;97572.50;6106968;23;20163;-82
2022/01/13 14:44:39;;;;;;;9.40;6.50;;;;;;;2.53;75.75;97569.94;6157978;23;20175;-81
2022/01/13 14:47:05;;;;;;;9.93;6.43;;;;;;;2.52;75.75;97568.28;6134318;23;20175;-80
2022/01/13 14:49:33;;;;;;;9.23;6.23;;;;;;;2.47;76.02;97562.47;6110482;23;20155;-80
2022/01/13 14:52:06;;;;;;;10.07;6.83;;;;;;;2.45;76.25;97561.66;6134357;23;20624;-80
2022/01/13 14:54:33;;;;;;;7.30;6.03;;;;;;;2.47;76.20;97559.03;6133889;23;20136;-81